createdAt,value
2019-05-26T00:02:09.720Z,60
2019-05-26T00:07:10.497Z,60
2019-05-26T00:12:10.385Z,60
2019-05-26T00:17:11.011Z,60
2019-05-26T00:22:09.343Z,61
2019-05-26T00:27:11.310Z,61
2019-05-26T00:32:10.529Z,61
2019-05-26T00:37:11.404Z,62
2019-05-26T00:42:08.574Z,62
2019-05-26T00:47:09.591Z,62
2019-05-26T00:52:10.256Z,62
2019-05-26T00:57:10.753Z,63
2019-05-26T01:02:10.442Z,63
2019-05-26T01:07:11.171Z,63
2019-05-26T01:12:11.128Z,63
2019-05-26T01:17:09.552Z,64
2019-05-26T01:22:09.921Z,64
2019-05-26T01:27:10.937Z,64
2019-05-26T01:32:10.337Z,64
2019-05-26T01:37:10.204Z,64
2019-05-26T01:42:10.335Z,64
2019-05-26T01:47:11.176Z,65
2019-05-26T01:52:09.936Z,65
2019-05-26T01:57:09.781Z,65
2019-05-26T02:02:10.756Z,65
2019-05-26T02:07:10.694Z,65
2019-05-26T02:12:10.839Z,65
2019-05-26T02:17:08.996Z,65
2019-05-26T02:22:10.257Z,66
2019-05-26T02:27:10.217Z,66
2019-05-26T02:32:11.265Z,66
2019-05-26T02:37:10.701Z,66
2019-05-26T02:42:11.137Z,66
2019-05-26T02:47:10.389Z,67
2019-05-26T02:52:10.787Z,67
2019-05-26T02:57:10.322Z,67
2019-05-26T03:02:10.930Z,67
2019-05-26T03:07:10.375Z,68
2019-05-26T03:12:10.263Z,68
2019-05-26T03:17:09.866Z,68
2019-05-26T03:22:10.257Z,68
2019-05-26T03:27:11.046Z,68
2019-05-26T03:32:08.574Z,68
2019-05-26T03:37:09.648Z,69
2019-05-26T03:42:10.622Z,69
2019-05-26T03:47:09.595Z,69
2019-05-26T03:52:08.939Z,69
2019-05-26T03:57:11.045Z,69
2019-05-26T04:02:09.578Z,69
2019-05-26T04:07:09.359Z,69
2019-05-26T04:12:10.962Z,69
2019-05-26T04:17:10.336Z,69
2019-05-26T04:22:11.284Z,69
2019-05-26T04:27:10.949Z,69
2019-05-26T04:32:10.078Z,69
2019-05-26T04:37:10.398Z,69
2019-05-26T04:42:10.599Z,70
2019-05-26T04:52:10.858Z,70
2019-05-26T04:57:10.627Z,70
2019-05-26T05:02:11.617Z,70
2019-05-26T05:07:11.325Z,70
2019-05-26T05:12:10.095Z,70
2019-05-26T05:27:09.184Z,71
2019-05-26T05:32:10.428Z,71
2019-05-26T05:37:10.814Z,71
2019-05-26T05:42:10.412Z,71
2019-05-26T05:52:10.105Z,71
2019-05-26T05:57:10.495Z,71
2019-05-26T06:07:10.179Z,71
2019-05-26T06:12:10.504Z,71
2019-05-26T06:17:10.743Z,71
2019-05-26T06:27:10.066Z,71
2019-05-26T06:37:10.212Z,70
2019-05-26T06:42:12.616Z,70
2019-05-26T06:47:10.224Z,70
2019-05-26T06:52:10.468Z,70
2019-05-26T06:57:10.690Z,70
2019-05-26T07:02:09.259Z,70
2019-05-26T07:07:10.267Z,69
2019-05-26T07:17:10.749Z,69
2019-05-26T07:27:10.628Z,68
2019-05-26T07:47:10.008Z,67
2019-05-26T07:57:10.366Z,66
2019-05-26T08:07:09.471Z,65
2019-05-26T08:22:09.353Z,62
2019-05-26T08:42:24.606Z,60
2019-05-26T08:52:10.054Z,59
2019-05-26T08:57:09.223Z,58
2019-05-26T09:02:09.789Z,57
2019-05-26T09:12:08.600Z,56
2019-05-26T09:17:10.257Z,56
2019-05-26T09:22:10.247Z,55
2019-05-26T09:32:10.150Z,54
2019-05-26T09:47:10.324Z,53
2019-05-26T09:52:08.664Z,53
2019-05-26T09:57:10.208Z,52
2019-05-26T10:02:09.275Z,52
2019-05-26T10:12:08.745Z,51
2019-05-26T10:17:08.993Z,51
2019-05-26T10:27:10.444Z,50
2019-05-26T10:47:09.810Z,49
2019-05-26T10:52:09.260Z,49
2019-05-26T11:17:10.060Z,47
2019-05-26T11:22:09.109Z,47
2019-05-26T11:27:12.484Z,47
2019-05-26T11:32:10.264Z,47
2019-05-26T11:52:10.347Z,46
2019-05-26T11:57:09.951Z,46
2019-05-26T12:02:09.967Z,45
2019-05-26T12:22:10.080Z,44
2019-05-26T12:32:10.243Z,44
2019-05-26T12:47:09.537Z,42
2019-05-26T12:57:09.841Z,42
2019-05-26T13:07:10.016Z,38
2019-05-26T13:17:09.938Z,36
2019-05-26T13:22:08.378Z,37
2019-05-26T13:37:10.109Z,36
2019-05-26T13:42:09.741Z,36
2019-05-26T13:57:09.994Z,36
2019-05-26T14:07:09.675Z,36
2019-05-26T14:17:09.996Z,35
2019-05-26T14:37:08.321Z,35
2019-05-26T14:42:09.962Z,36
2019-05-26T14:47:09.713Z,36
2019-05-26T14:57:08.514Z,36
2019-05-26T15:32:10.024Z,36
2019-05-26T15:47:09.687Z,36
2019-05-26T16:02:09.654Z,36
2019-05-26T16:07:10.117Z,35
2019-05-26T16:57:09.574Z,34
2019-05-26T18:02:09.512Z,33
2019-05-26T18:07:08.922Z,33
2019-05-26T18:12:09.512Z,33
2019-05-26T18:17:09.555Z,33
2019-05-26T18:32:09.700Z,34
2019-05-26T18:37:09.450Z,35
2019-05-26T18:42:09.403Z,35
2019-05-26T18:47:09.575Z,35
2019-05-26T18:52:09.399Z,36
2019-05-26T19:07:09.404Z,37
2019-05-26T19:17:09.572Z,38
2019-05-26T19:22:08.806Z,38
2019-05-26T19:27:09.229Z,38
2019-05-26T19:42:08.297Z,39
2019-05-26T19:47:09.686Z,40
2019-05-26T20:02:18.271Z,41
2019-05-26T20:07:10.177Z,41
2019-05-26T20:12:09.274Z,42
2019-05-26T20:17:09.240Z,42
2019-05-26T20:27:09.415Z,43
2019-05-26T20:37:09.495Z,44
2019-05-26T20:42:08.908Z,45
2019-05-26T20:47:08.944Z,45
2019-05-26T20:52:09.239Z,46
2019-05-26T20:57:08.844Z,46
2019-05-26T21:02:08.916Z,46
2019-05-26T21:07:08.999Z,47
2019-05-26T21:12:09.383Z,47
2019-05-26T21:17:08.919Z,47
2019-05-26T21:22:09.041Z,48
2019-05-26T21:27:09.358Z,48
2019-05-26T21:32:09.031Z,48
2019-05-26T21:37:09.137Z,49
2019-05-26T21:47:08.897Z,50
2019-05-26T21:52:08.930Z,50
2019-05-26T21:57:09.008Z,51
2019-05-26T22:02:09.184Z,51
2019-05-26T22:12:09.290Z,52
2019-05-26T22:17:08.876Z,52
2019-05-26T22:22:08.836Z,52
2019-05-26T22:32:08.245Z,53
2019-05-26T22:37:09.018Z,54
2019-05-26T22:42:09.223Z,54
2019-05-26T22:47:09.239Z,54
2019-05-26T22:52:08.455Z,54
2019-05-26T22:57:09.168Z,55
2019-05-26T23:02:09.166Z,55
2019-05-26T23:07:08.932Z,56
2019-05-26T23:12:09.673Z,56
2019-05-26T23:17:09.722Z,57
2019-05-26T23:22:09.193Z,57
2019-05-26T23:27:08.826Z,58
2019-05-26T23:32:08.897Z,58
2019-05-26T23:37:08.878Z,58
2019-05-26T23:42:09.534Z,58
2019-05-26T23:47:09.076Z,59
2019-05-26T23:52:08.683Z,59
2019-05-26T23:57:09.080Z,60
